»·PEaware :: FFT1514 KATL-KMIA

FFT1514 :: KATL-KMIA

FLIGHT INFORMATION

Flight Status: Arrived
Operator:
Frontier Airlines
More flights by this operator :: More flights under this callsign
Pilot: Drew L. (13237)
Aircraft: AIRBUS A320
(A320)
More flights by this aircraft type
Origin: KATL Hartsfield-Jackson Atlanta
United States
Destination: KMIA Miami Intl
United States
More flights between these airports :: More routes between these airports
Route: BANNG2 LUCKK HONID Q81 ENDEW JUULI SSCOT5
File this flight plan on PilotEdge
Remarks:
Altitude:
(Current/Filed)
37,000ft
Speed:
(Current/Filed)
450kts
Departed: 28-Sep-20 10:23 AM
Arrived: 28-Sep-20 11:52 AM
Distance/Time
Traveled:
518nm/1:29
Distance/Time
To Go:
Arrived

Flight Plot

Page will automatically refresh every two minutes.

Flight plan parsing failed; only flown route is shown


Map Options




Map Legend


Flown Route
Filed Route
Departure Airport
Arrival Airport
Navaid (VOR, NDB)
Fix

Horizontal Profiles

Position Reports

Time Latitude Longitude Heading Altitude Ground
Speed
28-Sep-20 10:10 33.637799 -84.428918 290 1040ft 0kts
28-Sep-20 10:11 33.637799 -84.428918 290 1040ft 0kts
28-Sep-20 10:12 33.637799 -84.428918 290 1040ft 0kts
28-Sep-20 10:13 33.637799 -84.428918 290 1040ft 0kts
28-Sep-20 10:14 33.637799 -84.428918 290 1040ft 0kts
28-Sep-20 10:15 33.637799 -84.428918 290 1040ft 0kts
28-Sep-20 10:16 33.637799 -84.428918 290 1040ft 0kts
28-Sep-20 10:17 33.637779 -84.428855 290 1040ft 1kts
28-Sep-20 10:18 33.637509 -84.427979 290 1040ft 2kts
28-Sep-20 10:19 33.637356 -84.427488 290 1040ft 0kts
28-Sep-20 10:20 33.635899 -84.427504 127 1040ft 10kts
28-Sep-20 10:21 33.635824 -84.421948 90 1040ft 20kts
28-Sep-20 10:22 33.634701 -84.419589 269 1040ft 45kts
28-Sep-20 10:23 33.634960 -84.465319 268 2697ft 162kts
28-Sep-20 10:24 33.634701 -84.538212 267 4872ft 256kts
28-Sep-20 10:25 33.582380 -84.577983 174 9121ft 274kts
28-Sep-20 10:26 33.497966 -84.569326 182 11448ft 344kts
28-Sep-20 10:27 33.397512 -84.559951 174 14674ft 375kts
28-Sep-20 10:28 33.292485 -84.534845 170 17866ft 392kts
28-Sep-20 10:29 33.185217 -84.501712 168 20618ft 406kts
28-Sep-20 10:30 33.071996 -84.484531 178 22933ft 414kts
28-Sep-20 10:31 32.956110 -84.473641 178 24909ft 425kts
28-Sep-20 10:32 32.836454 -84.461688 178 26575ft 436kts
28-Sep-20 10:33 32.714045 -84.449800 180 28107ft 447kts
28-Sep-20 10:34 32.588355 -84.443323 181 29606ft 456kts
28-Sep-20 10:35 32.460749 -84.436805 182 31037ft 462kts
28-Sep-20 10:36 32.332218 -84.430179 182 32451ft 461kts
28-Sep-20 10:37 32.204655 -84.423565 182 33782ft 457kts
28-Sep-20 10:38 32.080925 -84.388884 167 35325ft 463kts
28-Sep-20 10:39 31.958069 -84.341424 168 36323ft 465kts
28-Sep-20 10:40 31.835442 -84.294645 169 36967ft 462kts
28-Sep-20 10:41 31.713196 -84.248186 169 36971ft 460kts
28-Sep-20 10:42 31.591332 -84.202030 169 36968ft 460kts
28-Sep-20 10:43 31.469558 -84.156063 169 36968ft 460kts
28-Sep-20 10:44 31.347576 -84.110139 169 36964ft 461kts
28-Sep-20 10:45 31.225244 -84.064213 168 36961ft 461kts
28-Sep-20 10:46 31.102844 -84.018389 168 36957ft 462kts
28-Sep-20 10:47 30.980907 -83.972777 169 36965ft 460kts
28-Sep-20 10:48 30.858729 -83.927310 168 36968ft 461kts
28-Sep-20 10:49 30.736634 -83.881983 168 36966ft 461kts
28-Sep-20 10:50 30.614275 -83.836676 168 36962ft 461kts
28-Sep-20 10:51 30.491932 -83.791491 168 36958ft 461kts
28-Sep-20 10:52 30.370003 -83.746574 168 36961ft 461kts
28-Sep-20 10:53 30.247379 -83.701501 168 36964ft 461kts
28-Sep-20 10:54 30.124468 -83.656477 168 36965ft 463kts
28-Sep-20 10:55 30.001430 -83.611512 168 36973ft 463kts
28-Sep-20 10:56 29.878483 -83.566721 167 36980ft 464kts
28-Sep-20 10:57 29.755162 -83.521865 167 36986ft 465kts
28-Sep-20 10:58 29.631856 -83.477142 167 36994ft 465kts
28-Sep-20 10:59 29.508491 -83.432518 167 36995ft 465kts
28-Sep-20 11:00 29.384862 -83.387919 167 36995ft 465kts
28-Sep-20 11:01 29.261207 -83.343413 167 36995ft 466kts
28-Sep-20 11:02 29.139340 -83.291723 163 36995ft 468kts
28-Sep-20 11:03 29.017415 -83.238675 163 36996ft 469kts
28-Sep-20 11:04 28.895546 -83.185754 163 36996ft 469kts
28-Sep-20 11:05 28.773369 -83.132833 163 36990ft 469kts
28-Sep-20 11:06 28.650949 -83.080799 163 36990ft 469kts
28-Sep-20 11:07 28.528573 -83.028916 163 36990ft 469kts
28-Sep-20 11:08 28.405978 -82.977001 163 36978ft 470kts
28-Sep-20 11:09 28.283813 -82.924262 159 36972ft 472kts
28-Sep-20 11:10 28.165253 -82.859631 157 36965ft 473kts
28-Sep-20 11:11 28.077159 -82.811357 157 36960ft 473kts
28-Sep-20 11:12 27.958683 -82.746770 156 36958ft 472kts
28-Sep-20 11:13 27.835350 -82.697427 164 36955ft 470kts
28-Sep-20 11:14 27.710755 -82.651129 164 36940ft 471kts
28-Sep-20 11:15 27.586432 -82.604790 164 36942ft 470kts
28-Sep-20 11:16 27.462104 -82.558392 164 36940ft 471kts
28-Sep-20 11:17 27.337641 -82.511991 163 36939ft 471kts
28-Sep-20 11:18 27.213229 -82.465660 163 36948ft 472kts
28-Sep-20 11:19 27.088397 -82.419276 163 36957ft 472kts
28-Sep-20 11:20 26.963162 -82.372842 163 36958ft 473kts
28-Sep-20 11:21 26.837941 -82.326525 163 36956ft 474kts
28-Sep-20 11:23 26.712444 -82.280194 163 36953ft 475kts
28-Sep-20 11:24 26.588909 -82.228441 151 36949ft 478kts
28-Sep-20 11:25 26.487348 -82.131847 136 36941ft 479kts
28-Sep-20 11:26 26.390869 -82.029317 136 36940ft 479kts
28-Sep-20 11:27 26.294213 -81.926508 137 36928ft 480kts
28-Sep-20 11:28 26.198309 -81.824995 137 35395ft 477kts
28-Sep-20 11:29 26.127502 -81.699305 110 31667ft 487kts
28-Sep-20 11:30 26.081892 -81.557131 110 28851ft 493kts
28-Sep-20 11:31 26.035676 -81.412872 110 26251ft 497kts
28-Sep-20 11:32 25.990649 -81.271260 109 22411ft 474kts
28-Sep-20 11:33 25.948183 -81.137414 109 18985ft 444kts
28-Sep-20 11:34 25.908370 -81.011679 110 14958ft 418kts
28-Sep-20 11:35 25.867497 -80.894724 111 12054ft 397kts
28-Sep-20 11:36 25.854209 -80.774101 86 11384ft 396kts
28-Sep-20 11:37 25.873439 -80.659496 73 9828ft 350kts
28-Sep-20 11:38 25.895198 -80.563781 83 8206ft 297kts
28-Sep-20 11:38 25.903838 -80.489023 85 6946ft 289kts
28-Sep-20 11:40 25.913449 -80.387357 87 5832ft 276kts
28-Sep-20 11:41 25.916897 -80.303023 92 5169ft 269kts
28-Sep-20 11:41 25.915664 -80.233202 93 4574ft 270kts
28-Sep-20 11:43 25.914352 -80.136925 93 3757ft 249kts
28-Sep-20 11:44 25.918275 -80.068390 118 3038ft 204kts
28-Sep-20 11:44 25.884218 -80.038619 165 2975ft 188kts
28-Sep-20 11:45 25.834151 -80.049332 213 2983ft 192kts
28-Sep-20 11:46 25.809890 -80.101769 260 2938ft 204kts
28-Sep-20 11:47 25.806426 -80.162984 263 1928ft 186kts
28-Sep-20 11:48 25.804488 -80.209957 263 1092ft 133kts
28-Sep-20 11:49 25.802813 -80.249911 265 418ft 128kts
28-Sep-20 11:50 25.801393 -80.283718 266 22ft 43kts
28-Sep-20 11:51 25.799850 -80.287563 173 22ft 6kts
28-Sep-20 11:52 25.799314 -80.287473 176 22ft 0kts
28-Sep-20 11:53 25.798893 -80.287444 176 22ft 7kts
28-Sep-20 11:54 25.795920 -80.286109 154 22ft 15kts
28-Sep-20 11:55 25.792829 -80.283820 57 22ft 18kts
28-Sep-20 11:56 25.794615 -80.281436 3 22ft 0kts
28-Sep-20 11:57 25.794615 -80.281436 3 22ft 0kts
28-Sep-20 11:58 25.794615 -80.281436 3 22ft 0kts
28-Sep-20 11:59 25.794615 -80.281436 3 22ft 0kts
28-Sep-20 12:00 25.794615 -80.281436 3 22ft 0kts
28-Sep-20 12:01 25.794615 -80.281436 3 22ft 0kts
28-Sep-20 12:02 25.794615 -80.281436 3 22ft 0kts
28-Sep-20 12:03 25.794615 -80.281436 3 22ft 0kts
28-Sep-20 12:04 25.794615 -80.281436 3 22ft 0kts
28-Sep-20 12:05 25.794615 -80.281436 3 22ft 0kts

Navigation Log

Ident Type
Flight plan parsing failed, navigation log unavailable